Time;durP1;ratioP1;P1;durP2;ratioP2;P2;SDS_P1;SDS_P2;PMS_P1;PMS_P2;Temp;Humidity;BMP_temperature;BMP_pressure;BME280_temperature;BME280_humidity;BME280_pressure;Samples;Min_cycle;Max_cycle;Signal;HPM_P1;HPM_P2
2021/06/14 00:00:28;;;;;;;5.37;3.52;;;;;;;15.95;72.04;98883.88;1753678;82;21052;-74
2021/06/14 00:02:54;;;;;;;5.50;3.45;;;;;;;15.92;71.91;98894.37;1743396;82;20993;-74
2021/06/14 00:05:37;;;;;;;4.47;3.02;;;;;;;15.88;72.04;98896.52;1737027;82;20969;-73
2021/06/14 00:08:16;;;;;;;4.45;3.37;;;;;;;15.93;71.79;98896.53;1742710;82;21123;-73
2021/06/14 00:10:45;;;;;;;5.42;3.20;;;;;;;15.91;71.69;98893.17;1724615;82;21009;-73
2021/06/14 00:13:12;;;;;;;4.97;2.95;;;;;;;15.82;71.91;98897.65;1744964;82;21000;-74
2021/06/14 00:15:41;;;;;;;5.47;3.30;;;;;;;15.83;72.00;98893.52;1753718;82;21075;-73
2021/06/14 00:18:07;;;;;;;5.80;3.52;;;;;;;15.89;71.90;98891.53;1757583;82;21623;-73
2021/06/14 00:20:35;;;;;;;4.70;3.47;;;;;;;15.82;72.19;98890.50;1758171;76;20985;-73
2021/06/14 00:23:05;;;;;;;3.80;3.00;;;;;;;15.74;72.49;98890.44;1750442;80;20972;-73
2021/06/14 00:25:33;;;;;;;4.90;3.33;;;;;;;15.80;72.39;98887.64;1732774;82;20989;-73
2021/06/14 00:28:01;;;;;;;4.58;3.15;;;;;;;15.81;72.23;98883.98;1729383;82;21032;-73
2021/06/14 00:30:39;;;;;;;5.50;3.40;;;;;;;15.68;72.25;98885.78;1739787;82;21020;-74
2021/06/14 00:33:07;;;;;;;5.75;3.25;;;;;;;15.59;72.57;98889.39;1734097;82;21535;-73
2021/06/14 00:35:33;;;;;;;4.53;3.10;;;;;;;15.64;72.62;98884.41;1752692;82;20961;-74
2021/06/14 00:38:00;;;;;;;4.20;3.00;;;;;;;15.64;72.75;98895.07;1751541;82;21007;-74
2021/06/14 00:40:27;;;;;;;4.50;3.10;;;;;;;15.58;72.91;98889.08;1743427;81;20994;-72
2021/06/14 00:42:53;;;;;;;5.55;3.10;;;;;;;15.58;72.91;98887.75;1729789;82;21008;-72
2021/06/14 00:45:24;;;;;;;4.25;3.22;;;;;;;15.64;72.67;98890.59;1711198;82;21533;-73
2021/06/14 00:47:50;;;;;;;5.30;3.35;;;;;;;15.60;72.73;98885.73;1692157;84;21025;-74
2021/06/14 00:50:22;;;;;;;5.85;3.30;;;;;;;15.51;72.90;98885.72;1710013;83;21611;-73
2021/06/14 00:52:49;;;;;;;4.22;3.17;;;;;;;15.56;72.74;98884.73;1708083;84;21026;-73
2021/06/14 00:55:17;;;;;;;5.10;3.10;;;;;;;15.56;72.50;98880.74;1735174;82;21048;-74
2021/06/14 00:57:44;;;;;;;4.25;2.90;;;;;;;15.49;72.53;98880.22;1728293;82;20994;-73
2021/06/14 01:00:13;;;;;;;4.12;3.12;;;;;;;15.47;72.53;98891.02;1733133;82;21017;-74
2021/06/14 01:02:43;;;;;;;4.60;3.08;;;;;;;15.56;72.33;98884.73;1739080;82;21064;-73
2021/06/14 01:05:11;;;;;;;4.47;3.30;;;;;;;15.57;71.97;98884.23;1721519;82;20969;-73
2021/06/14 01:07:38;;;;;;;3.50;2.55;;;;;;;15.46;71.84;98880.04;1714469;82;21001;-74
2021/06/14 01:10:06;;;;;;;4.72;2.80;;;;;;;15.47;71.67;98886.19;1710303;84;21055;-73
2021/06/14 01:12:37;;;;;;;5.12;3.10;;;;;;;15.51;71.18;98893.72;1724358;82;21045;-74
2021/06/14 01:15:09;;;;;;;4.37;2.95;;;;;;;15.47;70.96;98884.86;1716968;82;21013;-74
2021/06/14 01:17:44;;;;;;;4.15;2.80;;;;;;;15.44;70.90;98890.02;1712888;82;21013;-73
2021/06/14 01:20:22;;;;;;;5.75;3.10;;;;;;;15.47;70.64;98892.34;1722862;82;20997;-74
2021/06/14 01:22:58;;;;;;;3.95;3.17;;;;;;;15.59;70.28;98889.39;1724719;82;21060;-74
2021/06/14 01:25:43;;;;;;;4.85;3.25;;;;;;;15.59;69.88;98890.25;1720263;82;20997;-73
2021/06/14 01:28:09;;;;;;;3.55;2.65;;;;;;;15.54;69.76;98884.05;1716598;82;21052;-73
2021/06/14 01:30:38;;;;;;;4.33;2.87;;;;;;;15.61;69.68;98884.75;1710920;82;21064;-74
2021/06/14 01:33:08;;;;;;;10.72;3.55;;;;;;;15.65;69.33;98890.08;1733063;82;21502;-73
2021/06/14 01:36:00;;;;;;;7.03;3.50;;;;;;;15.60;69.45;98885.73;1717964;82;21010;-74
2021/06/14 01:38:30;;;;;;;3.72;2.72;;;;;;;15.54;69.33;98889.89;1725799;82;21529;-74
2021/06/14 01:41:02;;;;;;;6.85;3.17;;;;;;;15.58;69.30;98887.75;1738534;82;21048;-74
2021/06/14 01:43:34;;;;;;;4.03;2.98;;;;;;;15.65;68.94;98897.59;1734384;82;21063;-74
2021/06/14 01:46:08;;;;;;;4.40;3.00;;;;;;;15.63;69.02;98893.42;1723944;83;21564;-74
2021/06/14 01:48:36;;;;;;;4.85;3.17;;;;;;;15.59;68.96;98889.39;1743467;82;21028;-73
2021/06/14 01:51:05;;;;;;;5.20;3.10;;;;;;;15.66;68.73;98895.24;1724608;82;20980;-73
2021/06/14 01:53:37;;;;;;;5.00;3.20;;;;;;;15.78;68.46;98898.95;1749036;82;21537;-73
2021/06/14 01:56:07;;;;;;;4.72;3.27;;;;;;;15.74;68.54;98907.77;1753601;82;21569;-73
2021/06/14 01:58:35;;;;;;;6.55;3.00;;;;;;;15.70;68.70;98901.95;1735232;82;21025;-74
2021/06/14 02:01:04;;;;;;;5.15;3.20;;;;;;;15.76;68.53;98907.11;1730194;81;20989;-74
2021/06/14 02:03:36;;;;;;;4.97;3.10;;;;;;;15.80;68.47;98913.78;1746181;82;21013;-74
2021/06/14 02:06:16;;;;;;;4.08;3.20;;;;;;;15.76;68.59;98915.11;1739207;82;21064;-74
2021/06/14 02:08:45;;;;;;;6.97;3.27;;;;;;;15.72;68.80;98909.27;1743986;82;21056;-73
2021/06/14 02:11:12;;;;;;;5.83;3.40;;;;;;;15.82;68.87;98908.31;1753089;82;21001;-73
2021/06/14 02:13:39;;;;;;;4.42;3.37;;;;;;;15.80;68.89;98920.45;1746179;82;21063;-74
2021/06/14 02:16:08;;;;;;;4.90;2.85;;;;;;;15.76;68.97;98923.11;1753785;81;20996;-74
2021/06/14 02:18:35;;;;;;;3.52;3.00;;;;;;;15.77;69.27;98923.93;1739504;82;21048;-74
2021/06/14 02:21:04;;;;;;;5.62;3.40;;;;;;;15.78;69.31;98915.80;1751081;82;21044;-73
2021/06/14 02:23:30;;;;;;;5.05;3.25;;;;;;;15.69;69.73;98920.27;1747474;82;21024;-73
2021/06/14 02:25:56;;;;;;;4.37;2.90;;;;;;;15.62;69.83;98926.39;1752734;82;21016;-73
2021/06/14 02:28:24;;;;;;;4.75;3.12;;;;;;;15.68;69.85;98920.43;1732842;82;21068;-74
2021/06/14 02:30:52;;;;;;;4.22;2.95;;;;;;;15.71;69.83;98926.75;1736828;82;21028;-72
2021/06/14 02:33:18;;;;;;;4.62;3.00;;;;;;;15.64;69.85;98923.05;1751494;82;21043;-73
2021/06/14 02:35:55;;;;;;;5.17;3.40;;;;;;;15.58;69.96;98927.72;1730130;82;21017;-73
2021/06/14 02:38:24;;;;;;;4.25;3.35;;;;;;;15.65;69.87;98931.39;1741697;82;21036;-73
2021/06/14 02:40:50;;;;;;;5.12;3.10;;;;;;;15.63;69.81;98932.07;1727188;82;21028;-74
2021/06/14 02:43:21;;;;;;;4.35;2.70;;;;;;;15.54;69.97;98936.02;1735056;82;21005;-74
2021/06/14 02:45:47;;;;;;;3.60;3.00;;;;;;;15.56;69.92;98937.18;1753666;82;20980;-74
2021/06/14 02:48:16;;;;;;;4.72;3.33;;;;;;;15.60;69.71;98937.70;1724464;82;21541;-74
2021/06/14 02:50:44;;;;;;;4.37;3.20;;;;;;;15.54;69.64;98937.35;1728033;82;21040;-73
2021/06/14 02:53:12;;;;;;;4.47;3.12;;;;;;;15.51;69.56;98944.34;1735671;82;20997;-73
2021/06/14 02:55:58;;;;;;;3.92;2.95;;;;;;;15.64;69.26;98940.38;1738481;82;21012;-73
2021/06/14 02:58:33;;;;;;;5.30;3.45;;;;;;;15.61;69.37;98939.38;1749670;82;21079;-73
2021/06/14 03:01:00;;;;;;;7.05;3.22;;;;;;;15.55;69.46;98939.02;1734696;82;21505;-73
2021/06/14 03:03:27;;;;;;;7.70;3.37;;;;;;;15.63;69.39;98937.40;1697832;82;21056;-73
2021/06/14 03:05:54;;;;;;;7.70;3.80;;;;;;;15.65;69.32;98940.72;1729903;82;20993;-73
2021/06/14 03:08:22;;;;;;;4.53;3.40;;;;;;;15.59;69.62;98940.02;1752714;82;21103;-73
2021/06/14 03:10:49;;;;;;;3.77;3.22;;;;;;;15.63;69.69;98925.41;1724591;82;21008;-73
2021/06/14 03:13:16;;;;;;;5.20;3.55;;;;;;;15.68;69.53;98940.42;1730340;82;21024;-73
2021/06/14 03:15:43;;;;;;;4.87;3.60;;;;;;;15.63;69.73;98944.06;1726604;82;20989;-73
2021/06/14 03:18:10;;;;;;;4.17;3.60;;;;;;;15.65;69.87;98943.39;1734480;82;21028;-73
2021/06/14 03:20:36;;;;;;;5.35;3.70;;;;;;;15.76;69.25;98947.09;1730431;82;20988;-73
2021/06/14 03:23:03;;;;;;;5.58;3.30;;;;;;;15.75;69.41;98932.61;1724384;82;21485;-73
2021/06/14 03:25:30;;;;;;;4.87;3.52;;;;;;;15.73;69.56;98934.92;1734755;82;21008;-72
2021/06/14 03:27:56;;;;;;;4.97;3.95;;;;;;;15.80;69.28;98937.77;1725181;82;21000;-73
2021/06/14 03:30:24;;;;;;;4.35;3.60;;;;;;;15.78;69.34;98941.59;1712706;83;21028;-73
2021/06/14 03:32:50;;;;;;;4.17;3.50;;;;;;;15.73;69.46;98945.59;1727058;82;21497;-73
2021/06/14 03:35:19;;;;;;;5.45;3.60;;;;;;;15.83;69.25;98944.17;1729450;82;21473;-73
2021/06/14 03:37:45;;;;;;;4.95;3.65;;;;;;;15.82;69.31;98943.83;1752331;82;21084;-73
2021/06/14 03:40:13;;;;;;;5.28;3.42;;;;;;;15.82;69.27;98943.83;1723678;82;21071;-73
2021/06/14 03:42:39;;;;;;;5.45;3.60;;;;;;;15.91;69.37;98950.50;1723956;82;21039;-73
2021/06/14 03:45:09;;;;;;;5.05;3.70;;;;;;;15.93;69.08;98952.01;1725738;82;21027;-73
2021/06/14 03:47:37;;;;;;;4.80;3.58;;;;;;;15.91;69.21;98953.16;1728474;82;21031;-74
2021/06/14 03:50:05;;;;;;;4.80;3.33;;;;;;;15.97;69.03;98949.37;1728758;82;21525;-74
2021/06/14 03:52:31;;;;;;;5.20;3.72;;;;;;;16.03;68.97;98953.22;1732430;82;21559;-74
2021/06/14 03:54:58;;;;;;;5.35;3.37;;;;;;;16.03;69.20;98963.87;1751472;82;20954;-74
2021/06/14 03:57:26;;;;;;;6.70;3.70;;;;;;;16.13;68.85;98965.91;1752658;82;20986;-74
2021/06/14 03:59:54;;;;;;;5.95;3.85;;;;;;;16.25;68.59;98969.60;1725608;82;20981;-73
2021/06/14 04:02:22;;;;;;;4.25;3.33;;;;;;;16.26;68.56;98969.94;1749841;82;21056;-73
2021/06/14 04:04:52;;;;;;;5.15;3.55;;;;;;;16.36;68.52;98968.78;1746952;82;21584;-74
2021/06/14 04:07:25;;;;;;;5.20;3.90;;;;;;;16.56;68.13;98976.50;1693834;82;21024;-73
2021/06/14 04:09:55;;;;;;;3.87;3.27;;;;;;;16.83;67.49;98968.65;1723716;83;21048;-74
2021/06/14 04:12:22;;;;;;;6.03;3.42;;;;;;;17.35;66.85;98968.78;1724130;82;21012;-73
2021/06/14 04:14:51;;;;;;;5.10;4.00;;;;;;;18.01;64.78;98978.42;1725895;82;21096;-74
2021/06/14 04:17:18;;;;;;;5.55;3.42;;;;;;;18.43;63.31;98975.83;1736405;82;21055;-75
2021/06/14 04:19:46;;;;;;;6.70;3.70;;;;;;;18.83;62.14;98977.85;1733949;82;20977;-75
2021/06/14 04:22:12;;;;;;;5.20;3.62;;;;;;;19.18;61.22;98977.92;1738740;82;20968;-73
2021/06/14 04:24:39;;;;;;;5.47;3.80;;;;;;;19.44;60.20;98978.31;1739390;82;21009;-74
2021/06/14 04:27:06;;;;;;;4.92;3.83;;;;;;;19.55;59.39;98972.17;1735784;82;21013;-76
2021/06/14 04:29:32;;;;;;;6.22;3.80;;;;;;;19.71;58.87;98977.34;1727724;82;21057;-75
2021/06/14 04:31:59;;;;;;;4.97;3.90;;;;;;;19.79;58.31;98979.91;1686615;85;21100;-74
2021/06/14 04:34:27;;;;;;;5.08;3.77;;;;;;;19.98;58.39;98981.21;1724111;82;20989;-75
2021/06/14 04:36:53;;;;;;;4.60;3.62;;;;;;;20.08;57.68;98987.64;1736857;82;21020;-75
2021/06/14 04:39:20;;;;;;;6.03;4.05;;;;;;;19.88;57.99;98998.11;1731311;82;21060;-76
2021/06/14 04:41:46;;;;;;;5.70;3.50;;;;;;;19.63;58.24;98997.56;1723436;83;21024;-76
2021/06/14 04:44:12;;;;;;;5.72;3.50;;;;;;;19.56;58.82;99004.67;1731983;82;20988;-75
2021/06/14 04:46:40;;;;;;;6.42;3.58;;;;;;;19.85;58.75;99001.19;1737311;82;21016;-75
2021/06/14 04:49:08;;;;;;;6.10;3.90;;;;;;;20.11;58.08;98997.98;1746247;82;21091;-74
2021/06/14 04:51:35;;;;;;;5.78;3.50;;;;;;;20.44;57.44;99000.73;1739176;82;21056;-74
2021/06/14 04:55:53;;;;;;;4.17;3.70;;;;;;;21.06;56.51;99000.63;1804625;79;23014;-74
2021/06/14 04:58:20;;;;;;;5.45;4.00;;;;;;;21.19;55.67;99009.80;1755332;81;21515;-74
2021/06/14 05:00:48;;;;;;;5.42;3.77;;;;;;;21.28;54.92;99011.34;1776303;80;21012;-74
2021/06/14 05:03:14;;;;;;;6.05;4.08;;;;;;;21.27;54.98;99028.49;1726326;83;21497;-74
2021/06/14 05:05:42;;;;;;;4.75;3.80;;;;;;;21.36;55.38;99015.21;1727982;83;21075;-73
2021/06/14 05:08:09;;;;;;;5.85;4.10;;;;;;;21.52;54.88;99022.16;1736202;81;21095;-74
2021/06/14 05:10:35;;;;;;;8.90;4.22;;;;;;;21.48;54.53;99017.36;1728310;83;21821;-74
2021/06/14 05:13:01;;;;;;;5.17;3.90;;;;;;;21.37;54.75;99024.95;1728159;83;21015;-74
2021/06/14 05:15:28;;;;;;;5.83;3.95;;;;;;;21.20;55.48;99023.56;1727984;83;21043;-74
2021/06/14 05:17:55;;;;;;;6.37;4.50;;;;;;;21.18;55.61;99027.80;1699458;83;21026;-74
2021/06/14 05:20:21;;;;;;;5.80;4.58;;;;;;;21.34;55.52;99023.16;1691662;84;21024;-74
2021/06/14 05:22:47;;;;;;;6.53;4.15;;;;;;;21.59;55.41;99027.61;1685336;84;21117;-74
2021/06/14 05:25:14;;;;;;;6.95;4.12;;;;;;;21.87;54.98;99034.81;1679825;85;21051;-73
2021/06/14 05:27:40;;;;;;;5.87;3.75;;;;;;;22.17;54.30;99035.88;1687931;83;22117;-73
2021/06/14 05:30:09;;;;;;;5.12;4.15;;;;;;;22.36;53.53;99036.48;1683078;85;21051;-74
2021/06/14 05:32:38;;;;;;;6.08;4.12;;;;;;;22.42;53.31;99037.02;1686970;85;21039;-73
2021/06/14 05:35:07;;;;;;;5.37;4.20;;;;;;;22.42;53.61;99037.02;1698242;84;21034;-74
2021/06/14 05:37:34;;;;;;;5.17;3.90;;;;;;;22.35;53.46;99032.62;1693037;84;21059;-74
2021/06/14 05:40:00;;;;;;;4.78;4.17;;;;;;;22.29;54.26;99026.69;1684133;85;21564;-74
2021/06/14 05:42:26;;;;;;;6.40;3.83;;;;;;;22.34;54.38;99033.14;1678533;85;21037;-74
2021/06/14 05:44:53;;;;;;;5.58;3.70;;;;;;;22.38;54.02;99037.12;1685119;84;21001;-74
2021/06/14 05:47:19;;;;;;;5.37;4.10;;;;;;;22.39;54.02;99038.79;1679260;85;21060;-74
2021/06/14 05:49:46;;;;;;;4.35;3.65;;;;;;;22.40;54.06;99035.56;1679615;85;21068;-74
2021/06/14 05:52:12;;;;;;;6.33;4.05;;;;;;;22.38;54.08;99038.47;1679437;85;21060;-74
2021/06/14 05:54:38;;;;;;;6.03;4.62;;;;;;;22.34;54.24;99053.34;1680847;85;21617;-74
2021/06/14 05:57:07;;;;;;;5.58;4.10;;;;;;;22.30;54.09;99041.82;1679079;85;21025;-74
2021/06/14 05:59:33;;;;;;;5.03;3.87;;;;;;;22.30;54.69;99045.33;1687568;85;21512;-73
2021/06/14 06:02:00;;;;;;;6.08;3.98;;;;;;;22.51;54.32;99053.84;1671388;85;21544;-74
2021/06/14 06:04:26;;;;;;;5.30;4.10;;;;;;;22.62;54.04;99055.63;1667987;85;21033;-73
2021/06/14 06:06:52;;;;;;;5.33;4.28;;;;;;;22.61;54.09;99058.85;1668858;85;21018;-74
2021/06/14 06:09:19;;;;;;;5.80;4.53;;;;;;;22.60;53.67;99066.61;1672341;85;21149;-73
2021/06/14 06:11:45;;;;;;;5.47;4.45;;;;;;;22.39;54.02;99064.37;1670657;84;21330;-73
2021/06/14 06:14:12;;;;;;;5.97;4.72;;;;;;;22.19;54.70;99068.83;1655940;84;21591;-73
2021/06/14 06:16:39;;;;;;;6.28;4.40;;;;;;;22.07;55.04;99072.08;1676826;85;21016;-74
2021/06/14 06:19:06;;;;;;;5.05;4.53;;;;;;;21.94;55.81;99078.73;1720769;82;21533;-73
2021/06/14 06:21:34;;;;;;;5.78;4.50;;;;;;;21.90;56.07;99080.16;1718261;82;21553;-73
2021/06/14 06:24:01;;;;;;;5.87;4.47;;;;;;;21.93;56.65;99075.22;1714376;82;21013;-73
2021/06/14 06:26:27;;;;;;;4.90;4.40;;;;;;;22.02;56.23;99074.55;1706277;82;20977;-73
2021/06/14 06:28:53;;;;;;;8.43;4.83;;;;;;;22.02;56.09;99077.73;1704016;82;21016;-73
2021/06/14 06:31:21;;;;;;;5.70;4.37;;;;;;;21.96;56.38;99078.52;1723096;82;21496;-73
2021/06/14 06:33:47;;;;;;;4.95;3.90;;;;;;;21.93;57.12;99081.09;1720341;82;21012;-74
2021/06/14 06:36:17;;;;;;;5.50;4.58;;;;;;;22.07;57.33;99090.93;1695927;82;21052;-74
2021/06/14 06:38:43;;;;;;;5.95;4.40;;;;;;;22.24;56.32;99090.07;1707732;83;21096;-75
2021/06/14 06:41:10;;;;;;;6.78;4.40;;;;;;;22.17;56.04;99089.73;1730973;82;21072;-71
2021/06/14 06:43:37;;;;;;;5.00;4.35;;;;;;;22.11;56.40;99083.29;1753143;82;22090;-71
2021/06/14 06:46:04;;;;;;;7.22;4.60;;;;;;;22.30;56.45;99092.47;1736622;82;21024;-72
2021/06/14 06:48:30;;;;;;;6.50;4.40;;;;;;;22.55;55.72;99087.42;1724515;82;21481;-74
2021/06/14 06:50:58;;;;;;;5.08;4.58;;;;;;;22.61;55.15;99087.64;1715322;82;20972;-74
2021/06/14 06:53:26;;;;;;;5.75;4.60;;;;;;;22.60;55.34;99096.25;1731784;82;20986;-74
2021/06/14 06:55:52;;;;;;;5.80;4.30;;;;;;;22.54;54.98;99097.06;1738387;82;21041;-75
2021/06/14 06:58:19;;;;;;;5.42;4.40;;;;;;;22.50;56.15;99106.05;1722271;82;20973;-74
2021/06/14 07:00:48;;;;;;;5.65;4.55;;;;;;;22.61;56.37;99104.66;1722520;83;21044;-74
2021/06/14 07:03:19;;;;;;;5.70;4.30;;;;;;;22.68;55.41;99110.88;1723744;82;21628;-75
2021/06/14 07:05:46;;;;;;;7.50;5.35;;;;;;;22.66;55.58;99114.81;1702083;82;21603;-75
2021/06/14 07:08:14;;;;;;;9.20;4.80;;;;;;;22.65;55.71;99111.30;1726330;82;21063;-75
2021/06/14 07:10:40;;;;;;;6.37;4.60;;;;;;;22.63;55.91;99113.35;1714805;82;21038;-73
2021/06/14 07:13:07;;;;;;;7.17;5.30;;;;;;;22.64;56.27;99117.72;1723294;83;21070;-73
2021/06/14 07:15:33;;;;;;;6.03;4.95;;;;;;;22.68;55.53;99118.97;1737304;82;21036;-74
2021/06/14 07:18:00;;;;;;;8.43;5.22;;;;;;;22.72;55.44;99116.70;1738090;82;21005;-73
2021/06/14 07:20:28;;;;;;;6.37;5.20;;;;;;;22.70;55.67;99125.00;1718935;82;21016;-73
2021/06/14 07:22:54;;;;;;;8.25;5.25;;;;;;;22.71;55.82;99127.16;1720378;83;20997;-74
2021/06/14 07:25:20;;;;;;;7.97;5.30;;;;;;;;;;1713397;82;20993;-75
2021/06/14 07:27:47;;;;;;;5.90;4.85;;;;;;;22.97;55.62;99135.86;1724836;82;21473;-73
2021/06/14 07:30:16;;;;;;;7.55;4.85;;;;;;;23.11;55.03;99131.32;1722129;82;21028;-73
2021/06/14 07:32:43;;;;;;;7.95;4.95;;;;;;;23.17;54.66;99136.44;1724850;82;21024;-74
2021/06/14 07:35:11;;;;;;;7.15;5.33;;;;;;;23.22;54.92;99128.55;1720868;82;21035;-73
2021/06/14 07:37:38;;;;;;;6.25;5.58;;;;;;;23.32;54.79;99124.93;1728767;82;21622;-74
2021/06/14 07:40:06;;;;;;;6.72;4.97;;;;;;;23.37;54.86;99132.42;1716766;82;21075;-74
2021/06/14 07:42:33;;;;;;;7.03;4.78;;;;;;;23.35;55.29;99131.78;1732199;82;21051;-74
2021/06/14 07:45:00;;;;;;;27.60;5.97;;;;;;;23.44;54.88;99148.60;1720233;82;21032;-73
2021/06/14 07:47:26;;;;;;;6.22;4.80;;;;;;;23.52;54.51;99142.48;1695390;83;21055;-73
2021/06/14 07:49:53;;;;;;;6.65;4.37;;;;;;;23.64;54.34;99156.71;1693091;84;21066;-74
2021/06/14 07:52:20;;;;;;;7.15;4.53;;;;;;;23.71;54.01;99150.27;1697631;84;21544;-74
2021/06/14 07:54:47;;;;;;;6.78;4.67;;;;;;;23.86;53.73;99147.86;1682750;84;21220;-73
2021/06/14 07:57:14;;;;;;;5.22;4.03;;;;;;;23.95;53.41;99143.95;1733029;82;21560;-73
2021/06/14 07:59:41;;;;;;;6.30;4.15;;;;;;;24.02;53.53;99146.11;1731930;81;20962;-74
2021/06/14 08:02:07;;;;;;;7.92;5.08;;;;;;;24.11;52.83;99142.66;1697847;82;21071;-74
2021/06/14 08:04:35;;;;;;;7.05;4.90;;;;;;;24.18;52.75;99139.94;1737920;82;21157;-75
2021/06/14 08:07:02;;;;;;;6.17;5.10;;;;;;;23.98;52.71;99103.02;1741929;80;21607;-72
2021/06/14 08:09:28;;;;;;;6.37;4.62;;;;;;;24.16;52.09;99127.19;1704968;83;21523;-73
2021/06/14 08:11:57;;;;;;;7.05;4.85;;;;;;;24.10;52.89;99148.28;1728930;81;21013;-74
2021/06/14 08:14:24;;;;;;;5.87;4.97;;;;;;;23.99;52.90;99145.19;1713426;82;21056;-73
2021/06/14 08:16:53;;;;;;;7.80;5.20;;;;;;;23.93;53.48;99144.67;1732525;81;20996;-73
2021/06/14 08:19:35;;;;;;;6.45;4.58;;;;;;;23.89;54.13;99152.86;1730263;82;21013;-74
2021/06/14 08:27:14;;;;;;;7.78;5.03;;;;;;;23.80;53.33;99170.29;1732382;82;21049;-75
2021/06/14 08:29:44;;;;;;;7.87;4.90;;;;;;;23.78;53.72;99172.39;1727716;81;21488;-75
2021/06/14 08:32:10;;;;;;;30.88;25.25;;;;;;;23.81;53.82;99171.95;1735128;82;20997;-73
2021/06/14 08:34:36;;;;;;;41.53;32.30;;;;;;;23.93;53.97;99170.33;1710913;81;21071;-72
2021/06/14 08:37:03;;;;;;;14.75;9.68;;;;;;;24.04;53.45;99170.20;1735181;82;21043;-72
2021/06/14 08:39:30;;;;;;;8.58;5.40;;;;;;;24.10;53.63;99178.00;1734881;81;21048;-73
2021/06/14 08:41:57;;;;;;;6.00;4.33;;;;;;;24.08;53.42;99182.27;1733979;82;21005;-76
2021/06/14 08:44:23;;;;;;;8.25;4.87;;;;;;;24.10;53.39;99179.34;1717465;81;21003;-76
2021/06/14 08:46:53;;;;;;;7.95;4.75;;;;;;;24.23;53.71;99189.30;1701105;81;21064;-75
2021/06/14 08:49:19;;;;;;;6.70;5.12;;;;;;;24.29;52.93;99196.03;1704720;83;20965;-76
2021/06/14 08:51:46;;;;;;;8.20;5.20;;;;;;;24.30;52.93;99198.23;1703289;81;21060;-77
2021/06/14 08:54:14;;;;;;;7.17;4.97;;;;;;;24.34;53.28;99202.16;1702813;83;21024;-76
2021/06/14 08:56:41;;;;;;;7.20;4.78;;;;;;;24.37;53.60;99201.22;1718197;81;20981;-76
2021/06/14 08:59:09;;;;;;;22.73;5.75;;;;;;;24.54;53.96;99202.93;1720298;82;21070;-76
2021/06/14 09:01:35;;;;;;;9.03;4.80;;;;;;;24.75;52.70;99204.25;1732377;81;20992;-76
2021/06/14 09:04:01;;;;;;;7.78;4.50;;;;;;;24.83;52.16;99212.11;1745199;81;21028;-76
2021/06/14 09:06:28;;;;;;;7.80;4.20;;;;;;;24.81;51.75;99218.24;1712182;82;21122;-76
2021/06/14 09:09:01;;;;;;;8.25;4.47;;;;;;;24.79;51.42;99211.70;1720445;81;21036;-75
2021/06/14 09:11:28;;;;;;;11.40;4.53;;;;;;;24.86;51.63;99221.16;1723857;82;20997;-74
2021/06/14 09:13:55;;;;;;;8.55;4.20;;;;;;;24.97;51.81;99220.47;1742589;81;21575;-75
2021/06/14 09:16:23;;;;;;;5.72;4.28;;;;;;;25.02;51.99;99222.53;1758620;81;21024;-74
2021/06/14 09:18:50;;;;;;;5.92;4.83;;;;;;;24.92;52.18;99233.80;1733436;81;21501;-74
2021/06/14 09:21:20;;;;;;;11.18;4.90;;;;;;;24.81;51.83;99231.27;1728346;82;20969;-75
2021/06/14 09:23:57;;;;;;;7.83;4.78;;;;;;;24.72;52.44;99235.75;1706427;81;21530;-75
2021/06/14 09:26:35;;;;;;;5.55;4.65;;;;;;;24.80;52.46;99224.72;1722236;81;21055;-76
2021/06/14 09:29:11;;;;;;;9.43;4.70;;;;;;;24.91;52.25;99222.70;1733802;82;20999;-74
2021/06/14 09:31:43;;;;;;;6.10;4.30;;;;;;;25.02;51.84;99230.65;1723362;81;21009;-76
2021/06/14 09:34:10;;;;;;;5.27;4.63;;;;;;;25.02;51.50;99232.81;1730525;82;21017;-74
2021/06/14 09:36:37;;;;;;;5.97;4.33;;;;;;;24.94;51.49;99228.20;1717335;81;21063;-73
2021/06/14 09:39:12;;;;;;;4.33;3.55;;;;;;;24.80;51.87;99230.13;1726086;82;20989;-73
2021/06/14 09:41:43;;;;;;;6.47;4.03;;;;;;;24.71;51.55;99229.53;1729897;81;20952;-74
2021/06/14 09:44:10;;;;;;;6.03;3.92;;;;;;;24.82;52.03;99230.72;1732249;82;21021;-73
2021/06/14 09:46:38;;;;;;;5.05;3.92;;;;;;;24.94;51.59;99239.84;1741249;82;21517;-75
2021/06/14 09:49:06;;;;;;;6.90;4.17;;;;;;;25.03;51.27;99236.38;1726480;81;21579;-75
2021/06/14 09:51:34;;;;;;;5.40;4.35;;;;;;;25.12;51.64;99236.96;1698553;83;21492;-75
2021/06/14 09:54:04;;;;;;;5.00;4.08;;;;;;;25.23;51.68;99244.91;1695289;81;21051;-75
2021/06/14 09:56:37;;;;;;;4.62;3.83;;;;;;;25.27;50.67;99241.56;1699954;83;21015;-75
2021/06/14 09:59:07;;;;;;;6.43;4.07;;;;;;;25.27;51.00;99235.30;1705352;83;22219;-74
2021/06/14 10:01:36;;;;;;;5.22;4.03;;;;;;;25.18;50.46;99235.56;1698239;84;21210;-75
2021/06/14 10:04:12;;;;;;;6.10;3.93;;;;;;;25.07;49.97;99238.13;1670452;84;21325;-76
2021/06/14 10:06:42;;;;;;;4.92;3.60;;;;;;;25.07;49.97;99238.13;1667519;85;21826;-75
2021/06/14 10:09:13;;;;;;;5.72;3.95;;;;;;;25.08;50.29;99245.17;1665100;85;21031;-75
2021/06/14 10:11:43;;;;;;;4.90;4.05;;;;;;;25.08;50.11;99243.83;1703685;83;21027;-75
2021/06/14 10:14:20;;;;;;;4.40;3.98;;;;;;;25.18;50.20;99233.39;1711922;82;21595;-76
2021/06/14 10:16:52;;;;;;;4.75;4.00;;;;;;;25.35;50.54;99234.55;1702270;83;21048;-75
2021/06/14 10:19:19;;;;;;;5.87;4.05;;;;;;;25.47;50.33;99239.28;1693508;85;21099;-74
2021/06/14 10:21:51;;;;;;;6.30;3.75;;;;;;;25.44;49.70;99238.37;1702363;82;20971;-75
2021/06/14 10:24:19;;;;;;;7.90;4.62;;;;;;;25.34;49.95;99249.63;1710045;84;21007;-74
2021/06/14 10:26:50;;;;;;;5.53;4.00;;;;;;;25.24;49.96;99243.33;1705570;83;20973;-72
2021/06/14 10:29:16;;;;;;;5.42;3.87;;;;;;;25.21;50.84;99255.13;1687207;84;21003;-73
2021/06/14 10:31:45;;;;;;;14.68;4.45;;;;;;;25.32;50.32;99250.36;1710476;83;21468;-74
2021/06/14 10:34:12;;;;;;;5.97;3.90;;;;;;;25.49;50.79;99243.42;1710941;83;21039;-74
2021/06/14 10:36:46;;;;;;;4.40;3.80;;;;;;;25.59;50.06;99244.81;1713014;82;21023;-74
2021/06/14 10:39:13;;;;;;;5.05;3.40;;;;;;;25.71;50.43;99239.01;1678959;84;21047;-74
2021/06/14 10:41:40;;;;;;;8.83;3.37;;;;;;;25.84;48.79;99241.63;1709761;84;21003;-74
2021/06/14 10:44:06;;;;;;;3.37;3.02;;;;;;;25.96;48.96;99236.32;1679185;84;21054;-73
2021/06/14 10:46:33;;;;;;;3.85;3.40;;;;;;;26.12;47.42;99232.77;1692722;84;21007;-74
2021/06/14 10:49:01;;;;;;;7.22;3.30;;;;;;;26.15;47.23;99232.31;1632953;85;21049;-74
2021/06/14 10:51:32;;;;;;;5.30;3.50;;;;;;;26.19;47.32;99231.34;1658510;85;21576;-73
2021/06/14 10:54:10;;;;;;;5.67;3.50;;;;;;;26.13;46.42;99234.44;1651770;85;21056;-76
2021/06/14 10:56:38;;;;;;;3.12;2.80;;;;;;;25.97;47.14;99240.70;1665768;84;21019;-77
2021/06/14 10:59:08;;;;;;;5.35;3.52;;;;;;;25.99;47.65;99237.75;1696390;84;21079;-76
2021/06/14 11:01:39;;;;;;;4.62;3.08;;;;;;;25.91;46.70;99232.09;1678866;84;21002;-76
2021/06/14 11:04:07;;;;;;;7.70;3.47;;;;;;;25.88;46.73;99229.81;1703005;84;20992;-76
2021/06/14 11:06:37;;;;;;;5.22;3.58;;;;;;;25.85;47.77;99240.56;1701709;83;21071;-74
2021/06/14 11:09:12;;;;;;;6.65;4.40;;;;;;;25.88;47.94;99242.00;1695181;84;21148;-77
2021/06/14 11:11:57;;;;;;;9.73;4.42;;;;;;;25.92;47.73;99237.82;1707339;83;21027;-76
2021/06/14 11:14:42;;;;;;;6.62;3.65;;;;;;;25.97;47.64;99235.28;1720832;82;21527;-74
2021/06/14 11:17:22;;;;;;;5.08;3.55;;;;;;;26.07;47.04;99221.77;1666594;84;21048;-75
2021/06/14 11:20:02;;;;;;;5.87;3.20;;;;;;;26.07;47.23;99225.84;1671657;84;20984;-75
2021/06/14 11:22:42;;;;;;;6.80;3.40;;;;;;;26.19;47.25;99226.78;1659044;84;21481;-75
2021/06/14 11:25:28;;;;;;;6.55;3.25;;;;;;;26.30;46.70;99231.44;1694995;84;20988;-72
2021/06/14 11:27:56;;;;;;;5.95;3.67;;;;;;;26.36;45.86;99231.08;1674443;85;21100;-76
2021/06/14 11:30:29;;;;;;;7.53;3.40;;;;;;;26.36;45.97;99237.02;1708450;83;21031;-76
2021/06/14 11:32:57;;;;;;;6.12;3.58;;;;;;;26.32;46.16;99238.83;1665345;86;21028;-75
2021/06/14 11:35:23;;;;;;;7.33;3.50;;;;;;;26.31;46.10;99228.22;1667051;84;21036;-75
2021/06/14 11:37:50;;;;;;;5.83;3.50;;;;;;;26.30;46.70;99238.21;1662996;86;21019;-74
2021/06/14 11:40:27;;;;;;;5.65;3.10;;;;;;;26.33;46.24;99237.78;1640491;86;21045;-79
2021/06/14 11:42:57;;;;;;;5.62;3.47;;;;;;;26.30;46.10;99231.44;1646899;86;21023;-80
2021/06/14 11:45:27;;;;;;;6.10;3.80;;;;;;;26.26;46.15;99234.30;1664860;84;21317;-79
2021/06/14 11:47:54;;;;;;;8.45;3.90;;;;;;;26.26;46.07;99232.94;1665831;84;21039;-79